Time;durP1;ratioP1;P1;durP2;ratioP2;P2;SDS_P1;SDS_P2;PMS_P1;PMS_P2;Temp;Humidity;BMP_temperature;BMP_pressure;BME280_temperature;BME280_humidity;BME280_pressure;Samples;Min_cycle;Max_cycle;Signal;HPM_P1;HPM_P2
2020/12/09 00:00:14;;;;;;;13.50;8.38;;;;;;;;;;5001757;28;20510;-72
2020/12/09 00:02:40;;;;;;;12.10;7.30;;;;;;;;;;5009167;28;20057;-73
2020/12/09 00:05:09;;;;;;;11.60;7.43;;;;;;;;;;4996311;28;20045;-74
2020/12/09 00:07:36;;;;;;;10.93;7.82;;;;;;;;;;5000014;28;20042;-74
2020/12/09 00:10:05;;;;;;;10.40;6.30;;;;;;;;;;5006135;28;20050;-74
2020/12/09 00:12:32;;;;;;;11.40;6.63;;;;;;;;;;5002459;28;20089;-73
2020/12/09 00:14:59;;;;;;;12.45;6.55;;;;;;;;;;5011681;28;20049;-74
2020/12/09 00:17:27;;;;;;;9.13;6.82;;;;;;;;;;4999183;28;20046;-73
2020/12/09 00:19:54;;;;;;;10.15;6.75;;;;;;;;;;4999318;28;20042;-73
2020/12/09 00:22:20;;;;;;;12.63;7.15;;;;;;;;;;5006127;28;20062;-73
2020/12/09 00:24:46;;;;;;;11.27;6.35;;;;;;;;;;4997873;28;20061;-72
2020/12/09 00:27:13;;;;;;;10.80;6.65;;;;;;;;;;4999831;28;20153;-72
2020/12/09 00:29:39;;;;;;;10.32;6.55;;;;;;;;;;5015564;28;20048;-72
2020/12/09 00:32:05;;;;;;;9.55;6.82;;;;;;;;;;4995894;28;20485;-72
2020/12/09 00:34:31;;;;;;;9.70;6.38;;;;;;;;;;5000273;28;20050;-72
2020/12/09 00:37:01;;;;;;;9.13;6.00;;;;;;;;;;5002072;28;20046;-72
2020/12/09 00:39:27;;;;;;;11.75;6.90;;;;;;;;;;5004794;28;20506;-72
2020/12/09 00:41:53;;;;;;;12.45;6.75;;;;;;;;;;5003287;28;20042;-72
2020/12/09 00:44:19;;;;;;;10.68;6.88;;;;;;;;;;5007511;28;20054;-74
2020/12/09 00:46:45;;;;;;;8.40;6.57;;;;;;;;;;5006165;28;20042;-74
2020/12/09 00:49:14;;;;;;;8.40;5.97;;;;;;;;;;5003524;28;20046;-74
2020/12/09 00:51:40;;;;;;;8.73;6.03;;;;;;;;;;5010988;28;20056;-73
2020/12/09 00:54:06;;;;;;;8.88;5.32;;;;;;;;;;5004841;28;20397;-72
2020/12/09 00:56:33;;;;;;;7.88;5.18;;;;;;;;;;5002731;28;20050;-72
2020/12/09 00:58:59;;;;;;;9.55;6.57;;;;;;;;;;4998125;28;20055;-72
2020/12/09 01:01:25;;;;;;;10.38;6.10;;;;;;;;;;5003343;28;20046;-72
2020/12/09 01:03:52;;;;;;;9.07;5.72;;;;;;;;;;5001698;28;20065;-72
2020/12/09 01:06:18;;;;;;;7.20;5.75;;;;;;;;;;5003154;28;20053;-74
2020/12/09 01:08:45;;;;;;;7.85;5.00;;;;;;;;;;5004518;28;20056;-74
2020/12/09 01:11:11;;;;;;;10.55;6.07;;;;;;;;;;5011315;28;20054;-74
2020/12/09 01:13:37;;;;;;;10.10;6.03;;;;;;;;;;5008394;28;20042;-73
2020/12/09 01:16:03;;;;;;;10.32;5.90;;;;;;;;;;4995220;28;20050;-74
2020/12/09 01:18:29;;;;;;;12.10;5.90;;;;;;;;;;4998187;28;20056;-73
2020/12/09 01:20:55;;;;;;;9.13;5.55;;;;;;;;;;5002427;28;20053;-75
2020/12/09 01:23:22;;;;;;;10.05;5.30;;;;;;;;;;5008296;28;20057;-73
2020/12/09 01:25:48;;;;;;;9.60;5.55;;;;;;;;;;5006430;28;20050;-72
2020/12/09 01:28:16;;;;;;;11.23;5.05;;;;;;;;;;5008418;28;20050;-71
2020/12/09 01:30:42;;;;;;;8.27;5.55;;;;;;;;;;4999881;28;20068;-72
2020/12/09 01:33:08;;;;;;;8.25;5.28;;;;;;;;;;4998161;28;20057;-73
2020/12/09 01:35:34;;;;;;;10.27;4.90;;;;;;;;;;5004889;28;20393;-72
2020/12/09 01:38:00;;;;;;;9.50;5.38;;;;;;;;;;5006792;28;20508;-72
2020/12/09 01:40:26;;;;;;;8.65;5.55;;;;;;;;;;4995176;28;20061;-72
2020/12/09 01:42:53;;;;;;;10.07;5.13;;;;;;;;;;4999321;28;20049;-74
2020/12/09 01:45:19;;;;;;;9.32;5.95;;;;;;;;;;5000977;28;20449;-75
2020/12/09 01:47:46;;;;;;;7.03;4.68;;;;;;;;;;5009264;28;20050;-73
2020/12/09 01:50:13;;;;;;;8.50;4.90;;;;;;;;;;5007448;28;20045;-73
2020/12/09 01:52:40;;;;;;;9.07;4.47;;;;;;;;;;5005959;28;20050;-72
2020/12/09 01:55:06;;;;;;;6.63;4.10;;;;;;;;;;5000399;28;20050;-73
2020/12/09 01:57:33;;;;;;;6.97;4.78;;;;;;;;;;4999575;28;20050;-73
2020/12/09 01:59:59;;;;;;;7.57;4.25;;;;;;;;;;5005729;28;20038;-73
2020/12/09 02:02:25;;;;;;;9.60;5.55;;;;;;;;;;5012017;28;20057;-72
2020/12/09 02:04:53;;;;;;;7.20;5.15;;;;;;;;;;5005084;28;20607;-73
2020/12/09 02:07:26;;;;;;;6.97;4.63;;;;;;;;;;5006597;28;20057;-73
2020/12/09 02:09:56;;;;;;;10.38;5.05;;;;;;;;;;5004372;28;20038;-72
2020/12/09 02:12:23;;;;;;;7.28;4.45;;;;;;;;;;5009494;28;20042;-73
2020/12/09 02:14:49;;;;;;;8.80;4.53;;;;;;;;;;4998803;28;20053;-72
2020/12/09 02:17:15;;;;;;;9.00;4.68;;;;;;;;;;5011665;28;20038;-73
2020/12/09 02:19:41;;;;;;;8.55;4.82;;;;;;;;;;5000704;28;20404;-73
2020/12/09 02:22:10;;;;;;;7.47;4.05;;;;;;;;;;5011604;28;20046;-73
2020/12/09 02:24:37;;;;;;;6.40;3.97;;;;;;;;;;5006983;28;20411;-74
2020/12/09 02:27:03;;;;;;;7.45;4.90;;;;;;;;;;5000193;28;20794;-74
2020/12/09 02:29:29;;;;;;;6.63;4.00;;;;;;;;;;4999840;28;20042;-73
2020/12/09 02:31:58;;;;;;;5.43;4.00;;;;;;;;;;5002232;28;20056;-74
2020/12/09 02:34:24;;;;;;;8.52;4.32;;;;;;;;;;4998160;28;20416;-73
2020/12/09 02:36:50;;;;;;;8.48;4.65;;;;;;;;;;5009716;28;20053;-72
2020/12/09 02:39:22;;;;;;;12.50;4.28;;;;;;;;;;5002718;28;20060;-73
2020/12/09 02:41:49;;;;;;;7.07;4.00;;;;;;;;;;5005803;28;20049;-73
2020/12/09 02:44:15;;;;;;;5.32;3.45;;;;;;;;;;5002696;28;20069;-72
2020/12/09 02:46:41;;;;;;;5.82;4.05;;;;;;;;;;5009328;28;20062;-72
2020/12/09 02:49:10;;;;;;;5.75;4.18;;;;;;;;;;5002151;28;20119;-72
2020/12/09 02:51:36;;;;;;;5.22;4.07;;;;;;;;;;4998174;28;20058;-72
2020/12/09 02:54:02;;;;;;;5.78;3.85;;;;;;;;;;5004648;28;20050;-73
2020/12/09 02:56:28;;;;;;;6.88;3.90;;;;;;;;;;5010602;28;20050;-74
2020/12/09 02:58:54;;;;;;;7.25;4.00;;;;;;;;;;5003277;28;20046;-74
2020/12/09 03:01:20;;;;;;;5.20;3.97;;;;;;;;;;4999340;28;20060;-74
2020/12/09 03:03:49;;;;;;;6.07;3.97;;;;;;;;;;5012245;28;20054;-73
2020/12/09 03:06:15;;;;;;;6.27;3.90;;;;;;;;;;5002710;28;20057;-73
2020/12/09 03:08:41;;;;;;;6.30;4.03;;;;;;;;;;5005509;28;20495;-73
2020/12/09 03:11:09;;;;;;;6.35;3.80;;;;;;;;;;5006130;28;20049;-73
2020/12/09 03:13:35;;;;;;;6.57;3.70;;;;;;;;;;5001297;28;20069;-72
2020/12/09 03:16:01;;;;;;;6.65;3.65;;;;;;;;;;5000348;28;20414;-74
2020/12/09 03:18:30;;;;;;;4.70;3.05;;;;;;;;;;5004915;28;20046;-75
2020/12/09 03:20:56;;;;;;;5.28;3.45;;;;;;;;;;5002984;28;20496;-75
2020/12/09 03:23:22;;;;;;;4.97;3.47;;;;;;;;;;5005696;28;20056;-74
2020/12/09 03:25:48;;;;;;;8.20;3.42;;;;;;;;;;5004793;28;20046;-74
2020/12/09 03:28:14;;;;;;;7.03;3.17;;;;;;;;;;4995749;28;20046;-73
2020/12/09 03:30:41;;;;;;;4.45;3.22;;;;;;;;;;4997383;28;20058;-73
2020/12/09 03:33:07;;;;;;;5.28;3.55;;;;;;;;;;5007552;28;20057;-73
2020/12/09 03:35:34;;;;;;;5.45;3.58;;;;;;;;;;5002543;28;20408;-74
2020/12/09 03:38:00;;;;;;;4.60;3.60;;;;;;;;;;4999550;28;20054;-73
2020/12/09 03:40:26;;;;;;;5.53;3.92;;;;;;;;;;4996530;28;20069;-73
2020/12/09 03:42:52;;;;;;;4.72;3.20;;;;;;;;;;5001808;28;20060;-74
2020/12/09 03:45:18;;;;;;;5.68;3.28;;;;;;;;;;5007352;28;20053;-73
2020/12/09 03:47:44;;;;;;;5.50;3.65;;;;;;;;;;5006940;28;20046;-73
2020/12/09 03:50:10;;;;;;;4.72;3.40;;;;;;;;;;5004506;28;20050;-73
2020/12/09 03:52:36;;;;;;;4.35;3.33;;;;;;;;;;4997491;28;20056;-73
2020/12/09 03:55:03;;;;;;;4.63;3.25;;;;;;;;;;5007679;28;20046;-74
2020/12/09 03:57:29;;;;;;;7.07;3.80;;;;;;;;;;4998266;28;20049;-73
2020/12/09 03:59:55;;;;;;;3.97;3.22;;;;;;;;;;5002217;28;20045;-73
2020/12/09 04:02:21;;;;;;;4.80;3.55;;;;;;;;;;5006988;28;20053;-73
2020/12/09 04:04:47;;;;;;;5.20;3.80;;;;;;;;;;4999224;28;20048;-74
2020/12/09 04:07:14;;;;;;;6.20;3.30;;;;;;;;;;4999784;28;20078;-72
2020/12/09 04:09:40;;;;;;;6.07;3.25;;;;;;;;;;5000631;28;20066;-72
2020/12/09 04:12:06;;;;;;;5.55;3.30;;;;;;;;;;5006207;28;20060;-72
2020/12/09 04:14:33;;;;;;;4.65;3.08;;;;;;;;;;4997030;28;20052;-72
2020/12/09 04:16:59;;;;;;;4.75;3.10;;;;;;;;;;5008148;28;20065;-71
2020/12/09 04:19:25;;;;;;;4.25;2.83;;;;;;;;;;4998142;28;20412;-72
2020/12/09 04:21:51;;;;;;;4.22;2.83;;;;;;;;;;5003004;28;20042;-72
2020/12/09 04:24:18;;;;;;;4.78;3.00;;;;;;;;;;5006030;28;20514;-72
2020/12/09 04:26:44;;;;;;;5.00;3.25;;;;;;;;;;5005559;28;20381;-72
2020/12/09 04:29:10;;;;;;;6.93;2.97;;;;;;;;;;5000206;28;20611;-72
2020/12/09 04:31:37;;;;;;;6.60;3.30;;;;;;;;;;4996360;28;20412;-73
2020/12/09 04:34:04;;;;;;;4.68;3.20;;;;;;;;;;4995838;28;20057;-73
2020/12/09 04:36:31;;;;;;;4.20;3.05;;;;;;;;;;5001636;28;20052;-72
2020/12/09 04:38:58;;;;;;;5.30;3.08;;;;;;;;;;4998265;28;20137;-74
2020/12/09 04:41:24;;;;;;;6.65;3.00;;;;;;;;;;4997404;28;20054;-73
2020/12/09 04:43:50;;;;;;;4.50;2.92;;;;;;;;;;4995665;28;20054;-73
2020/12/09 04:46:16;;;;;;;5.13;3.15;;;;;;;;;;4992311;28;20056;-73
2020/12/09 04:48:57;;;;;;;5.50;3.25;;;;;;;;;;4998968;28;20054;-72
2020/12/09 04:51:23;;;;;;;4.50;3.15;;;;;;;;;;4995261;28;20566;-73
2020/12/09 04:53:55;;;;;;;4.70;3.30;;;;;;;;;;4999865;28;20467;-74
2020/12/09 04:56:26;;;;;;;6.90;3.42;;;;;;;;;;5003166;28;20491;-74
2020/12/09 04:58:56;;;;;;;4.53;3.13;;;;;;;;;;5000826;28;20397;-72
2020/12/09 05:01:31;;;;;;;6.55;3.05;;;;;;;;;;5003596;28;20051;-73
2020/12/09 05:03:57;;;;;;;5.38;3.05;;;;;;;;;;4995843;28;20058;-73
2020/12/09 05:06:26;;;;;;;4.45;3.08;;;;;;;;;;5004939;28;20042;-73
2020/12/09 05:08:56;;;;;;;5.18;3.33;;;;;;;;;;5003278;28;20534;-73
2020/12/09 05:11:26;;;;;;;5.38;3.05;;;;;;;;;;5007702;28;20060;-73
2020/12/09 05:13:53;;;;;;;5.60;3.33;;;;;;;;;;4999109;28;20057;-74
2020/12/09 05:16:23;;;;;;;4.53;2.97;;;;;;;;;;5000812;28;20575;-74
2020/12/09 05:18:54;;;;;;;4.85;3.13;;;;;;;;;;5007627;28;20049;-74
2020/12/09 05:21:21;;;;;;;4.60;2.90;;;;;;;;;;5003035;28;20045;-74
2020/12/09 05:23:47;;;;;;;4.65;2.75;;;;;;;;;;5005948;28;20050;-75
2020/12/09 05:26:19;;;;;;;3.60;2.58;;;;;;;;;;5005528;28;20548;-75
2020/12/09 05:28:48;;;;;;;5.88;2.92;;;;;;;;;;5006353;28;20164;-74
2020/12/09 05:31:18;;;;;;;4.65;2.90;;;;;;;;;;5008098;28;20054;-74
2020/12/09 05:33:44;;;;;;;5.47;2.55;;;;;;;;;;5008344;28;20418;-74
2020/12/09 05:36:10;;;;;;;6.05;3.63;;;;;;;;;;5001623;28;20510;-73
2020/12/09 05:38:41;;;;;;;4.13;3.08;;;;;;;;;;4999175;28;20126;-73
2020/12/09 05:41:11;;;;;;;3.88;3.03;;;;;;;;;;5001019;28;20050;-72
2020/12/09 05:43:43;;;;;;;3.65;2.60;;;;;;;;;;5001110;28;20525;-73
2020/12/09 05:46:10;;;;;;;4.43;3.40;;;;;;;;;;5006458;28;20418;-72
2020/12/09 05:48:39;;;;;;;4.75;2.67;;;;;;;;;;5005829;28;20068;-71
2020/12/09 05:51:09;;;;;;;4.45;2.85;;;;;;;;;;5004313;28;20648;-73
2020/12/09 05:53:35;;;;;;;4.22;2.88;;;;;;;;;;5002558;28;20052;-74
2020/12/09 05:56:15;;;;;;;3.85;2.72;;;;;;;;;;5008938;28;20405;-73
2020/12/09 05:58:44;;;;;;;5.20;2.70;;;;;;;;;;4996462;28;20060;-74
2020/12/09 06:01:12;;;;;;;5.60;2.67;;;;;;;;;;5001561;28;20054;-75
2020/12/09 06:03:41;;;;;;;4.50;2.70;;;;;;;;;;5004829;28;20069;-74
2020/12/09 06:06:07;;;;;;;4.53;2.53;;;;;;;;;;5005747;28;20061;-74
2020/12/09 06:08:40;;;;;;;4.13;2.40;;;;;;;;;;5006621;28;20077;-74
2020/12/09 06:11:07;;;;;;;3.90;2.45;;;;;;;;;;4999969;28;20057;-74
2020/12/09 06:13:33;;;;;;;4.32;2.55;;;;;;;;;;4999738;28;20042;-74
2020/12/09 06:16:07;;;;;;;4.32;3.33;;;;;;;;;;5000401;28;20045;-74
2020/12/09 06:18:34;;;;;;;3.97;2.75;;;;;;;;;;4998674;28;20066;-74
2020/12/09 06:21:01;;;;;;;4.00;2.80;;;;;;;;;;5007642;28;20052;-73
2020/12/09 06:23:27;;;;;;;3.38;2.53;;;;;;;;;;5002254;28;20042;-72
2020/12/09 06:25:55;;;;;;;3.70;2.70;;;;;;;;;;4996854;28;20049;-73
2020/12/09 06:28:22;;;;;;;3.58;2.30;;;;;;;;;;5004702;28;20530;-73
2020/12/09 06:30:49;;;;;;;4.35;2.80;;;;;;;;;;4998651;28;20050;-72
2020/12/09 06:33:31;;;;;;;2.95;2.13;;;;;;;;;;5000945;28;20616;-74
2020/12/09 06:36:09;;;;;;;5.40;2.85;;;;;;;;;;4997852;28;20046;-74
2020/12/09 06:38:35;;;;;;;5.40;2.88;;;;;;;;;;4999305;28;20052;-73
2020/12/09 06:41:04;;;;;;;3.53;2.40;;;;;;;;;;5002479;28;20136;-74
2020/12/09 06:43:30;;;;;;;4.47;2.75;;;;;;;;;;5004871;28;20061;-75
2020/12/09 06:45:59;;;;;;;6.30;3.38;;;;;;;;;;5002055;28;20068;-74
2020/12/09 06:48:25;;;;;;;4.25;2.67;;;;;;;;;;5008768;28;20496;-74
2020/12/09 06:50:51;;;;;;;3.80;2.60;;;;;;;;;;5003404;28;20038;-73
2020/12/09 06:53:18;;;;;;;4.43;2.80;;;;;;;;;;4996109;28;20077;-73
2020/12/09 06:55:45;;;;;;;3.85;2.45;;;;;;;;;;5005914;28;20050;-73
2020/12/09 06:58:24;;;;;;;3.95;2.78;;;;;;;;;;4994464;28;20504;-73
2020/12/09 07:01:00;;;;;;;3.50;2.38;;;;;;;;;;4991413;28;20404;-75
2020/12/09 07:03:29;;;;;;;3.35;2.28;;;;;;;;;;5007708;28;20484;-72
2020/12/09 07:05:56;;;;;;;3.88;2.70;;;;;;;;;;4990395;28;20046;-73
2020/12/09 07:08:22;;;;;;;3.63;2.65;;;;;;;;;;5006694;28;20048;-74
2020/12/09 07:10:48;;;;;;;3.78;2.80;;;;;;;;;;4995105;28;20047;-73
2020/12/09 07:13:17;;;;;;;3.47;2.42;;;;;;;;;;5010634;28;20050;-73
2020/12/09 07:15:50;;;;;;;3.10;2.08;;;;;;;;;;5005663;28;20056;-72
2020/12/09 07:18:17;;;;;;;4.13;2.67;;;;;;;;;;4987921;28;20041;-74
2020/12/09 07:20:48;;;;;;;3.15;2.00;;;;;;;;;;4998445;28;20053;-73
2020/12/09 07:23:15;;;;;;;5.07;2.50;;;;;;;;;;5001041;28;20172;-71
2020/12/09 07:25:41;;;;;;;2.67;2.10;;;;;;;;;;5003583;28;20084;-72
2020/12/09 07:28:07;;;;;;;3.42;2.47;;;;;;;;;;4998235;28;20049;-73
2020/12/09 07:30:34;;;;;;;2.92;2.20;;;;;;;;;;4997874;28;20090;-72
2020/12/09 07:33:00;;;;;;;3.58;2.25;;;;;;;;;;5004488;28;20045;-72
2020/12/09 07:35:26;;;;;;;3.80;2.40;;;;;;;;;;5001508;28;20046;-72
2020/12/09 07:37:56;;;;;;;3.78;2.17;;;;;;;;;;5005515;28;20053;-73
2020/12/09 07:40:33;;;;;;;4.47;2.38;;;;;;;;;;5011880;28;20053;-71
2020/12/09 07:42:59;;;;;;;4.70;2.40;;;;;;;;;;5001500;28;20057;-71
2020/12/09 07:45:25;;;;;;;3.67;2.42;;;;;;;;;;4998870;28;20050;-77
2020/12/09 07:47:57;;;;;;;3.60;2.50;;;;;;;;;;4994375;28;20054;-78
2020/12/09 07:50:23;;;;;;;3.67;2.25;;;;;;;;;;4997107;28;20054;-76
2020/12/09 07:52:49;;;;;;;3.25;2.30;;;;;;;;;;4992983;28;20133;-79
2020/12/09 07:55:17;;;;;;;2.47;2.08;;;;;;;;;;5007558;28;20193;-78
2020/12/09 07:57:43;;;;;;;3.20;2.08;;;;;;;;;;4997003;28;20041;-78
2020/12/09 08:00:14;;;;;;;4.03;2.70;;;;;;;;;;4999182;28;20049;-79
2020/12/09 08:02:41;;;;;;;3.55;2.28;;;;;;;;;;5001783;28;20054;-79
2020/12/09 08:05:27;;;;;;;3.63;2.08;;;;;;;;;;5000107;28;20431;-79
2020/12/09 08:07:59;;;;;;;5.13;2.47;;;;;;;;;;5004171;28;20738;-77
2020/12/09 08:10:32;;;;;;;4.80;2.70;;;;;;;;;;5004357;28;20049;-77
2020/12/09 08:12:59;;;;;;;4.47;2.55;;;;;;;;;;5003623;28;20396;-77
2020/12/09 08:15:25;;;;;;;4.38;2.97;;;;;;;;;;5004551;28;20037;-78
2020/12/09 08:17:55;;;;;;;6.38;3.30;;;;;;;;;;5002093;28;20144;-79
2020/12/09 08:20:21;;;;;;;9.35;2.47;;;;;;;;;;5002381;28;20042;-77
2020/12/09 08:22:52;;;;;;;5.28;2.95;;;;;;;;;;5002788;28;20045;-78
2020/12/09 08:25:19;;;;;;;3.72;3.28;;;;;;;;;;5003639;28;20067;-81
2020/12/09 08:27:52;;;;;;;7.57;3.22;;;;;;;;;;4995737;28;20051;-88
2020/12/09 08:30:20;;;;;;;6.50;3.13;;;;;;;;;;5004853;28;20620;-80
2020/12/09 08:32:57;;;;;;;7.38;2.92;;;;;;;;;;5005457;28;20041;-79
2020/12/09 08:35:24;;;;;;;4.55;3.10;;;;;;;;;;4996351;28;20049;-80
2020/12/09 08:37:50;;;;;;;4.78;2.85;;;;;;;;;;5005958;28;20042;-79
2020/12/09 08:40:16;;;;;;;4.95;2.95;;;;;;;;;;5000182;28;20046;-79
2020/12/09 08:42:49;;;;;;;5.97;2.92;;;;;;;;;;5000968;28;20046;-79
2020/12/09 08:45:15;;;;;;;3.47;2.67;;;;;;;;;;5000816;28;20046;-80
2020/12/09 08:47:41;;;;;;;4.10;2.85;;;;;;;;;;5006251;28;20431;-80
2020/12/09 08:50:08;;;;;;;3.80;2.67;;;;;;;;;;5014170;28;20053;-79
2020/12/09 08:52:34;;;;;;;5.60;2.78;;;;;;;;;;4995708;28;20070;-80
2020/12/09 08:55:01;;;;;;;4.47;2.90;;;;;;;;;;4995151;28;20046;-79
2020/12/09 08:57:31;;;;;;;5.43;3.25;;;;;;;;;;5001462;28;20076;-80
2020/12/09 08:59:57;;;;;;;5.18;3.58;;;;;;;;;;5007551;28;20641;-81
2020/12/09 09:02:24;;;;;;;5.38;2.38;;;;;;;;;;4994664;28;20078;-79
2020/12/09 09:04:50;;;;;;;3.80;2.80;;;;;;;;;;5009152;28;20381;-80
2020/12/09 09:07:16;;;;;;;3.92;3.20;;;;;;;;;;5002766;28;20404;-79
2020/12/09 09:09:42;;;;;;;4.60;2.90;;;;;;;;;;5000877;28;20408;-79
2020/12/09 09:12:09;;;;;;;5.07;2.80;;;;;;;;;;4997418;28;20384;-79
2020/12/09 09:14:37;;;;;;;4.75;2.67;;;;;;;;;;5010946;28;20436;-79
2020/12/09 09:17:06;;;;;;;4.00;2.33;;;;;;;;;;5008030;28;20044;-79
2020/12/09 09:19:33;;;;;;;5.05;2.83;;;;;;;;;;4998432;28;20520;-78
2020/12/09 09:21:59;;;;;;;5.82;3.00;;;;;;;;;;5009044;28;20054;-79
2020/12/09 09:24:26;;;;;;;4.60;3.20;;;;;;;;;;5010854;28;20050;-79
2020/12/09 09:26:52;;;;;;;4.93;2.92;;;;;;;;;;5003075;28;20052;-79
2020/12/09 09:29:20;;;;;;;3.72;2.72;;;;;;;;;;5003645;28;20082;-81
2020/12/09 09:31:46;;;;;;;4.95;2.83;;;;;;;;;;5007319;28;20054;-80
2020/12/09 09:34:15;;;;;;;4.07;2.88;;;;;;;;;;5009885;28;20048;-81
2020/12/09 09:36:43;;;;;;;6.18;2.70;;;;;;;;;;5008334;28;20572;-81
2020/12/09 09:39:10;;;;;;;3.85;2.70;;;;;;;;;;5077204;23;20489;-79
2020/12/09 09:41:39;;;;;;;4.03;2.65;;;;;;;;;;4989635;28;20072;-80
2020/12/09 09:44:09;;;;;;;5.68;2.53;;;;;;;;;;4989062;28;20054;-79
2020/12/09 09:46:45;;;;;;;4.35;2.40;;;;;;;;;;4989463;28;20046;-78
2020/12/09 09:49:15;;;;;;;4.38;2.50;;;;;;;;;;4983200;28;20484;-86
2020/12/09 09:51:41;;;;;;;5.00;2.72;;;;;;;;;;4985793;28;20051;-75
2020/12/09 09:54:07;;;;;;;4.78;2.67;;;;;;;;;;4984417;28;20133;-82
2020/12/09 09:56:33;;;;;;;4.60;2.50;;;;;;;;;;4990558;28;20046;-77
2020/12/09 09:58:59;;;;;;;6.65;2.67;;;;;;;;;;4988653;28;20054;-82
2020/12/09 10:01:25;;;;;;;3.95;2.72;;;;;;;;;;4987539;28;20467;-73
2020/12/09 10:03:51;;;;;;;4.85;2.67;;;;;;;;;;4986545;28;20060;-73
2020/12/09 10:06:17;;;;;;;4.10;2.78;;;;;;;;;;4985937;28;20052;-74
2020/12/09 10:08:43;;;;;;;7.57;2.38;;;;;;;;;;4987889;28;20084;-73
2020/12/09 10:11:10;;;;;;;4.88;2.63;;;;;;;;;;4988520;28;20062;-74
2020/12/09 10:13:36;;;;;;;4.15;2.85;;;;;;;;;;4986268;28;20057;-74
2020/12/09 10:16:02;;;;;;;4.85;2.33;;;;;;;;;;4984795;28;20046;-73
2020/12/09 10:18:29;;;;;;;3.22;2.38;;;;;;;;;;4989770;28;20572;-73
2020/12/09 10:20:55;;;;;;;6.95;2.80;;;;;;;;;;4987515;28;20038;-74
2020/12/09 10:23:21;;;;;;;5.00;2.55;;;;;;;;;;4982033;28;20105;-74
2020/12/09 10:25:50;;;;;;;3.90;2.88;;;;;;;;;;4985889;28;20415;-74
2020/12/09 10:28:16;;;;;;;5.72;3.10;;;;;;;;;;4984116;28;20053;-75
2020/12/09 10:30:51;;;;;;;4.53;2.78;;;;;;;;;;4984132;28;20630;-74
2020/12/09 10:33:17;;;;;;;4.50;2.80;;;;;;;;;;4987963;28;20054;-74
2020/12/09 10:35:47;;;;;;;7.22;2.92;;;;;;;;;;4981353;28;20078;-74
2020/12/09 10:38:13;;;;;;;8.15;3.22;;;;;;;;;;4988443;28;20057;-79
2020/12/09 10:40:39;;;;;;;7.05;2.53;;;;;;;;;;4985526;28;20046;-77
2020/12/09 10:43:05;;;;;;;3.25;2.50;;;;;;;;;;4983566;28;20058;-76
2020/12/09 10:45:33;;;;;;;3.67;2.60;;;;;;;;;;4988554;28;20078;-76
2020/12/09 10:48:02;;;;;;;3.25;2.20;;;;;;;;;;4987243;28;20050;-78
2020/12/09 10:50:28;;;;;;;5.05;2.28;;;;;;;;;;4988998;28;20054;-75
2020/12/09 10:52:58;;;;;;;5.32;2.67;;;;;;;;;;4982922;28;20109;-75
2020/12/09 10:55:24;;;;;;;7.20;2.50;;;;;;;;;;4986209;28;20050;-74
2020/12/09 10:57:50;;;;;;;7.32;2.13;;;;;;;;;;4988564;28;20050;-78
2020/12/09 11:00:17;;;;;;;10.88;3.10;;;;;;;;;;4986213;28;20523;-80
2020/12/09 11:02:43;;;;;;;2.90;2.20;;;;;;;;;;4984925;28;20567;-78
2020/12/09 11:05:11;;;;;;;5.25;2.53;;;;;;;;;;4981979;28;20050;-79
2020/12/09 11:07:38;;;;;;;4.20;2.40;;;;;;;;;;4987353;28;20557;-79
2020/12/09 11:10:04;;;;;;;4.45;2.58;;;;;;;;;;4987821;28;20650;-79
2020/12/09 11:12:30;;;;;;;4.60;2.25;;;;;;;;;;4988659;28;20202;-79
2020/12/09 11:14:57;;;;;;;3.50;2.60;;;;;;;;;;4986009;28;20046;-77
2020/12/09 11:17:23;;;;;;;3.58;2.47;;;;;;;;;;4982648;28;20055;-77
2020/12/09 11:19:49;;;;;;;5.68;2.60;;;;;;;;;;4982745;28;20047;-77
2020/12/09 11:22:15;;;;;;;3.88;2.85;;;;;;;;;;4989457;28;20058;-79
2020/12/09 11:24:41;;;;;;;3.83;2.22;;;;;;;;;;4988105;28;20515;-79
2020/12/09 11:27:08;;;;;;;4.50;2.30;;;;;;;;;;4985985;28;20157;-77
2020/12/09 11:29:34;;;;;;;4.03;2.35;;;;;;;;;;4984637;28;20128;-78
2020/12/09 11:32:06;;;;;;;5.88;2.83;;;;;;;;;;4981919;28;20165;-78
2020/12/09 11:34:33;;;;;;;5.88;2.95;;;;;;;;;;4983721;28;20489;-80
2020/12/09 11:37:03;;;;;;;5.15;3.03;;;;;;;;;;4988398;28;20054;-77
2020/12/09 11:39:29;;;;;;;5.38;3.20;;;;;;;;;;4988685;28;20522;-80
2020/12/09 11:41:59;;;;;;;4.40;2.90;;;;;;;;;;4987880;28;20074;-80
2020/12/09 11:44:25;;;;;;;6.18;3.33;;;;;;;;;;4981273;28;20065;-78
2020/12/09 11:46:52;;;;;;;4.18;2.90;;;;;;;;;;4988367;28;20050;-76
2020/12/09 11:49:18;;;;;;;3.80;2.42;;;;;;;;;;4986084;28;20061;-79
2020/12/09 11:51:47;;;;;;;8.13;4.10;;;;;;;;;;4988960;28;20117;-79
2020/12/09 11:54:13;;;;;;;5.85;3.22;;;;;;;;;;4989025;28;20045;-79
2020/12/09 11:56:40;;;;;;;8.57;4.05;;;;;;;;;;4989097;28;20196;-80
2020/12/09 11:59:06;;;;;;;9.00;4.50;;;;;;;;;;4984832;28;20093;-79
2020/12/09 12:01:32;;;;;;;9.38;5.03;;;;;;;;;;4985269;28;20071;-79
2020/12/09 12:04:00;;;;;;;7.68;4.75;;;;;;;;;;4979598;28;20299;-78
2020/12/09 12:06:28;;;;;;;11.63;5.35;;;;;;;;;;4985155;28;20514;-79
2020/12/09 12:08:55;;;;;;;7.93;5.85;;;;;;;;;;4984438;28;20058;-79
2020/12/09 12:11:27;;;;;;;7.82;7.00;;;;;;;;;;4984088;28;20065;-80
2020/12/09 12:13:54;;;;;;;10.50;7.28;;;;;;;;;;4984495;28;20054;-79
2020/12/09 12:16:22;;;;;;;8.55;5.82;;;;;;;;;;4985755;28;20054;-79
2020/12/09 12:18:48;;;;;;;8.60;5.78;;;;;;;;;;4986391;28;20134;-79
2020/12/09 12:21:18;;;;;;;8.93;5.93;;;;;;;;;;4983807;28;20054;-79
2020/12/09 12:23:47;;;;;;;9.88;5.75;;;;;;;;;;4984939;28;20144;-80
2020/12/09 12:26:18;;;;;;;7.68;5.28;;;;;;;;;;4981321;28;20058;-79
2020/12/09 12:28:45;;;;;;;9.20;5.32;;;;;;;;;;4980130;28;20504;-80
2020/12/09 12:31:15;;;;;;;7.28;4.85;;;;;;;;;;4979980;28;20056;-78
2020/12/09 12:33:40;;;;;;;;;;;;;;;;;;4984993;28;20488;-75
2020/12/09 12:36:07;;;;;;;5.22;4.03;;;;;;;;;;4983781;28;19921;-79
2020/12/09 12:38:34;;;;;;;5.72;4.15;;;;;;;;;;4983998;28;20046;-79
2020/12/09 12:41:01;;;;;;;9.63;4.45;;;;;;;;;;4980108;28;20189;-79
2020/12/09 12:43:27;;;;;;;5.43;3.83;;;;;;;;;;4984592;28;20057;-78
2020/12/09 12:45:53;;;;;;;7.35;4.22;;;;;;;;;;4983591;28;20047;-78
2020/12/09 12:48:19;;;;;;;7.72;4.07;;;;;;;;;;4977057;28;20050;-78
2020/12/09 12:50:48;;;;;;;7.50;4.10;;;;;;;;;;4981961;28;20407;-78
2020/12/09 12:53:14;;;;;;;8.90;4.35;;;;;;;;;;4986339;28;20054;-79
2020/12/09 12:55:40;;;;;;;5.45;4.05;;;;;;;;;;4986577;28;20567;-78
2020/12/09 12:58:09;;;;;;;4.97;3.90;;;;;;;;;;4980849;28;20121;-79
2020/12/09 13:00:35;;;;;;;5.35;3.72;;;;;;;;;;4982937;28;20046;-79
2020/12/09 13:03:02;;;;;;;9.30;3.88;;;;;;;;;;4988171;28;20046;-79
2020/12/09 13:05:28;;;;;;;5.45;3.63;;;;;;;;;;4985270;28;20054;-79
2020/12/09 13:07:55;;;;;;;4.53;3.13;;;;;;;;;;4987695;28;20043;-79
2020/12/09 13:10:21;;;;;;;6.45;4.13;;;;;;;;;;4988304;28;20057;-79
2020/12/09 13:12:48;;;;;;;5.93;3.53;;;;;;;;;;4988060;28;20464;-78
2020/12/09 13:15:14;;;;;;;9.05;4.03;;;;;;;;;;4986408;28;20046;-77
2020/12/09 13:17:42;;;;;;;6.28;3.30;;;;;;;;;;4986431;28;20062;-78
2020/12/09 13:20:11;;;;;;;6.28;4.55;;;;;;;;;;4984963;28;20058;-77
2020/12/09 13:22:38;;;;;;;6.03;3.65;;;;;;;;;;4978067;28;20061;-78
2020/12/09 13:25:05;;;;;;;6.78;3.75;;;;;;;;;;4989186;28;20503;-80
2020/12/09 13:27:31;;;;;;;7.15;3.65;;;;;;;;;;4982068;28;20500;-83
2020/12/09 13:29:57;;;;;;;6.95;3.78;;;;;;;;;;4985454;28;20058;-80
2020/12/09 13:32:23;;;;;;;7.95;4.75;;;;;;;;;;4992570;28;20042;-82
2020/12/09 13:34:49;;;;;;;6.30;3.85;;;;;;;;;;4987812;28;20051;-78
2020/12/09 13:37:15;;;;;;;4.93;3.20;;;;;;;;;;4988299;28;20053;-81
2020/12/09 13:39:41;;;;;;;7.47;3.85;;;;;;;;;;4993175;28;20066;-88
2020/12/09 13:42:08;;;;;;;7.28;3.78;;;;;;;;;;4991896;28;20108;-82
2020/12/09 13:44:34;;;;;;;5.97;3.55;;;;;;;;;;4987847;28;20046;-80
2020/12/09 13:47:00;;;;;;;4.85;3.33;;;;;;;;;;4988948;28;20416;-78
2020/12/09 13:49:27;;;;;;;4.57;3.38;;;;;;;;;;4990884;28;20050;-76
2020/12/09 13:51:53;;;;;;;6.10;4.05;;;;;;;;;;4986076;28;20045;-78
2020/12/09 13:54:20;;;;;;;5.70;3.83;;;;;;;;;;4981701;28;20047;-76
2020/12/09 13:56:46;;;;;;;8.02;3.58;;;;;;;;;;4992148;28;20046;-77
2020/12/09 13:59:12;;;;;;;6.00;3.42;;;;;;;;;;4989446;28;20057;-78
2020/12/09 14:01:39;;;;;;;6.55;3.78;;;;;;;;;;4985732;28;20097;-77
2020/12/09 14:04:06;;;;;;;5.70;3.40;;;;;;;;;;4982119;28;20058;-79
2020/12/09 14:06:32;;;;;;;7.00;3.95;;;;;;;;;;4983870;28;20492;-79
2020/12/09 14:08:58;;;;;;;7.05;3.80;;;;;;;;;;4989975;28;20054;-78
2020/12/09 14:11:30;;;;;;;4.78;3.08;;;;;;;;;;4991282;28;20438;-79
2020/12/09 14:13:57;;;;;;;5.32;3.13;;;;;;;;;;4990454;28;20048;-78
2020/12/09 14:16:30;;;;;;;6.97;3.25;;;;;;;;;;4987091;28;20047;-79
2020/12/09 14:18:59;;;;;;;12.57;3.35;;;;;;;;;;4985415;28;20061;-79
2020/12/09 14:21:25;;;;;;;6.07;3.30;;;;;;;;;;4991871;28;20046;-79
2020/12/09 14:23:52;;;;;;;9.27;3.42;;;;;;;;;;4989712;28;20799;-79
2020/12/09 14:26:19;;;;;;;6.28;3.72;;;;;;;;;;4988195;28;20408;-79
2020/12/09 14:28:45;;;;;;;6.80;3.75;;;;;;;;;;4987248;28;20505;-79
2020/12/09 14:31:12;;;;;;;5.93;2.85;;;;;;;;;;4989849;28;20073;-80
2020/12/09 14:33:38;;;;;;;7.53;4.15;;;;;;;;;;4985761;28;20050;-78
2020/12/09 14:36:04;;;;;;;5.85;2.90;;;;;;;;;;4990148;28;20054;-77
2020/12/09 14:38:30;;;;;;;35.00;5.85;;;;;;;;;;4984602;28;20405;-80
2020/12/09 14:40:57;;;;;;;8.07;3.22;;;;;;;;;;4988220;28;20504;-82
2020/12/09 14:43:23;;;;;;;8.02;3.85;;;;;;;;;;4984098;28;20046;-83